SBOSBO STN / EGSS
Speedbird OnlineSpeedbird Online STN / EGSS

London Stansted Airport
16:46 10.3°C

Location London, United Kingdom
Latitude: 51.8849983215
Longitude: 0.234999999404
Local Time 16:46 on 17 Apr 2024
UTC +1 hours (Europe/London)
METAR EGSS 171520Z AUTO 32010KT 280V350 9999 NCD 10/M01 Q1014
TAF TAF EGSS 171056Z 1712/1818 32012KT 9999 FEW032 PROB40 TEMPO 1713/1721 33017G27KT 7000 SHRA PROB40 TEMPO 1721/1802 34015G25KT 7000 SHRA BKN014 BECMG 1812/1815 25010KT
Weather As Of 17 Apr 2024 16:46
Description Overcast clouds
Wind 19 km/h from North-West (320°)
Cloud Cover 99%
Precipitation Rain: none, Snow: none
Sunrise 05:57
Sunset 19:59
NOTAM 4 active NOTAM
Rotations During the last 90 days there were
1 flights from PRG
1 flights from LCY
2 flights to LHR
2 flights to LCY
1 flights to DUB
1 flights to EDI
1 flights to LGW
Web Airport Website | Wikipedia
Codes IATA: STN
ICAO: EGSS
Altitude 106 Meter / 348 Feet
Distance 42 KM / 26 Miles
from London.
Runways
RunwayLength (m)Surface
043049Asphalt
223049Asphalt
Radio
TypeDescriptionFrequency
APPEssex Radar120.625
ATISATIS127.175
CLDCLNC DEL121.95
DIRDIRECTOR136.2
GNDGND121.725
RDRDirector136.2
TWRTWR123.8
Live ATC



Support Speedbird Online

© 2017-2024 Speedbird Online